Time;durP1;ratioP1;P1;durP2;ratioP2;P2;SDS_P1;SDS_P2;PMS_P1;PMS_P2;Temp;Humidity;BMP_temperature;BMP_pressure;BME280_temperature;BME280_humidity;BME280_pressure;Samples;Min_cycle;Max_cycle;Signal;HPM_P1;HPM_P2
2022/05/02 00:00:10;;;;;;;13.18;10.57;;;6.60;99.90;;;;;;5055864;28;20427;-70
2022/05/02 00:02:37;;;;;;;12.55;9.93;;;6.60;99.90;;;;;;5056301;28;20106;-69
2022/05/02 00:05:04;;;;;;;11.57;10.38;;;6.60;99.90;;;;;;5055148;28;20461;-69
2022/05/02 00:07:29;;;;;;;12.32;9.52;;;6.60;99.90;;;;;;5055845;28;20040;-69
2022/05/02 00:09:55;;;;;;;15.40;11.52;;;6.50;99.90;;;;;;5055650;28;20187;-68
2022/05/02 00:12:20;;;;;;;11.40;9.57;;;6.50;99.90;;;;;;5055843;28;20052;-69
2022/05/02 00:14:46;;;;;;;11.82;10.20;;;6.50;99.90;;;;;;5055850;28;20049;-69
2022/05/02 00:17:12;;;;;;;13.32;10.52;;;6.50;99.90;;;;;;5037404;28;20044;-69
2022/05/02 00:19:37;;;;;;;13.32;10.45;;;6.50;99.90;;;;;;5041001;28;20184;-70
2022/05/02 00:22:03;;;;;;;11.63;9.98;;;6.50;99.90;;;;;;5035739;28;20375;-70
2022/05/02 00:24:29;;;;;;;11.40;10.13;;;6.40;99.90;;;;;;5035663;28;20050;-69
2022/05/02 00:26:54;;;;;;;11.85;9.65;;;6.40;99.90;;;;;;5035669;28;20048;-68
2022/05/02 00:29:20;;;;;;;10.60;9.50;;;6.30;99.90;;;;;;5035611;28;20129;-72
2022/05/02 00:31:46;;;;;;;13.82;9.77;;;6.30;99.90;;;;;;5043596;28;20060;-70
2022/05/02 00:34:12;;;;;;;11.13;9.43;;;6.30;99.90;;;;;;5055074;28;20040;-70
2022/05/02 00:36:38;;;;;;;13.50;10.65;;;6.30;99.90;;;;;;5055044;28;20371;-69
2022/05/02 00:39:04;;;;;;;14.77;10.05;;;6.20;99.90;;;;;;5055392;28;20045;-70
2022/05/02 00:41:30;;;;;;;12.35;10.10;;;6.20;99.90;;;;;;5055705;28;20059;-69
2022/05/02 00:43:55;;;;;;;12.20;10.07;;;6.10;99.90;;;;;;5055260;28;20370;-69
2022/05/02 00:46:23;;;;;;;14.57;10.13;;;6.10;99.90;;;;;;5054553;28;20045;-69
2022/05/02 00:48:49;;;;;;;12.57;10.52;;;6.10;99.90;;;;;;5054288;28;20414;-70
2022/05/02 00:51:16;;;;;;;12.35;9.88;;;6.00;99.90;;;;;;5055100;28;20049;-69
2022/05/02 00:53:44;;;;;;;14.20;10.57;;;6.00;99.90;;;;;;5055248;28;20041;-69
2022/05/02 00:56:10;;;;;;;11.45;10.13;;;6.00;99.90;;;;;;5054925;28;20118;-68
2022/05/02 00:58:37;;;;;;;15.65;10.13;;;5.90;99.90;;;;;;5055042;28;20135;-72
2022/05/02 01:01:04;;;;;;;12.55;10.10;;;5.90;99.90;;;;;;5054141;28;20062;-70
2022/05/02 01:03:31;;;;;;;15.55;11.10;;;5.90;99.90;;;;;;5054673;28;20053;-69
2022/05/02 01:08:42;;;;;;;14.73;9.90;;;5.80;99.90;;;;;;5055237;28;20052;-69
2022/05/02 01:11:08;;;;;;;17.38;10.43;;;5.70;99.90;;;;;;5055061;28;20056;-68
2022/05/02 01:13:40;;;;;;;13.60;10.38;;;5.70;99.90;;;;;;5054383;28;20049;-69
2022/05/02 01:16:22;;;;;;;12.75;11.07;;;5.70;99.90;;;;;;5054542;28;20056;-69
2022/05/02 01:18:50;;;;;;;13.63;10.65;;;5.70;99.90;;;;;;5053760;28;20110;-69
2022/05/02 01:21:21;;;;;;;14.50;10.45;;;5.60;99.90;;;;;;5053875;28;20111;-69
2022/05/02 01:23:49;;;;;;;11.48;10.27;;;5.70;99.90;;;;;;5055061;28;20052;-68
2022/05/02 01:26:15;;;;;;;13.82;11.35;;;5.60;99.90;;;;;;5054874;28;20045;-70
2022/05/02 01:28:53;;;;;;;12.68;10.98;;;5.60;99.90;;;;;;5054584;28;20048;-70
2022/05/02 01:31:19;;;;;;;13.70;9.95;;;5.60;99.90;;;;;;5053858;28;20036;-70
2022/05/02 01:33:45;;;;;;;12.10;10.75;;;5.60;99.90;;;;;;5054999;28;20048;-69
2022/05/02 01:36:11;;;;;;;13.73;11.05;;;5.60;99.90;;;;;;5054663;28;20118;-68
2022/05/02 01:38:37;;;;;;;13.00;11.60;;;5.50;99.90;;;;;;5055045;28;20037;-69
2022/05/02 01:41:04;;;;;;;12.63;11.02;;;5.50;99.90;;;;;;5054475;28;20459;-69
2022/05/02 01:43:31;;;;;;;12.23;10.90;;;5.50;99.90;;;;;;5054802;28;20123;-70
2022/05/02 01:45:57;;;;;;;14.63;12.07;;;5.50;99.90;;;;;;5053932;28;20064;-70
2022/05/02 01:48:23;;;;;;;14.85;11.18;;;5.40;99.90;;;;;;5054448;28;20045;-68
2022/05/02 01:50:48;;;;;;;13.60;10.73;;;5.40;99.90;;;;;;5054084;28;20045;-70
2022/05/02 01:53:14;;;;;;;11.98;10.77;;;5.40;99.90;;;;;;5054445;28;20055;-70
2022/05/02 01:55:40;;;;;;;14.35;11.95;;;5.40;99.90;;;;;;5054497;28;20124;-69
2022/05/02 01:58:06;;;;;;;13.73;12.05;;;5.40;99.90;;;;;;5054632;28;20422;-68
2022/05/02 02:00:32;;;;;;;14.13;11.90;;;5.40;99.90;;;;;;5053839;28;20041;-70
2022/05/02 02:02:57;;;;;;;16.27;12.63;;;5.30;99.90;;;;;;5054354;28;20128;-71
2022/05/02 02:08:07;;;;;;;14.73;11.63;;;5.30;99.90;;;;;;5054299;28;20045;-70
2022/05/02 02:10:32;;;;;;;17.23;12.73;;;5.30;99.90;;;;;;5053993;28;20053;-68
2022/05/02 02:12:58;;;;;;;13.52;12.13;;;5.30;99.90;;;;;;5054315;28;20048;-69
2022/05/02 02:15:24;;;;;;;17.08;13.07;;;5.30;99.90;;;;;;5053501;28;20080;-71
2022/05/02 02:17:50;;;;;;;14.52;12.52;;;5.20;99.90;;;;;;5054202;28;20124;-71
2022/05/02 02:20:15;;;;;;;17.05;12.40;;;5.20;99.90;;;;;;5054390;28;20049;-68
2022/05/02 02:22:41;;;;;;;15.65;12.52;;;5.20;99.90;;;;;;5054070;28;20058;-70
2022/05/02 02:25:07;;;;;;;15.40;12.23;;;5.20;99.90;;;;;;5057515;28;20052;-70
2022/05/02 02:27:33;;;;;;;15.75;13.00;;;5.20;99.90;;;;;;5057829;28;20060;-69
2022/05/02 02:29:59;;;;;;;14.88;12.75;;;5.20;99.90;;;;;;5057102;28;20081;-69
2022/05/02 02:32:25;;;;;;;16.60;12.23;;;5.10;99.90;;;;;;5057953;28;20134;-68
2022/05/02 02:34:51;;;;;;;13.68;11.70;;;5.10;99.90;;;;;;5057852;28;20473;-69
2022/05/02 02:37:16;;;;;;;13.63;12.23;;;5.10;99.90;;;;;;5057778;28;20091;-68
2022/05/02 02:39:43;;;;;;;14.43;11.98;;;5.10;99.90;;;;;;5057945;28;20041;-69
2022/05/02 02:42:09;;;;;;;14.30;12.48;;;5.00;99.90;;;;;;5057600;28;20036;-69
2022/05/02 02:44:34;;;;;;;15.23;12.23;;;5.00;99.90;;;;;;5056558;28;20060;-68
2022/05/02 02:47:00;;;;;;;15.95;12.23;;;5.00;99.90;;;;;;5057602;28;20474;-70
2022/05/02 02:49:25;;;;;;;15.02;12.20;;;5.00;99.90;;;;;;5057124;28;20068;-71
2022/05/02 02:51:51;;;;;;;15.32;12.80;;;5.00;99.90;;;;;;5054193;28;20049;-71
2022/05/02 02:54:17;;;;;;;14.45;11.75;;;5.00;99.90;;;;;;5056842;28;20044;-70
2022/05/02 02:56:43;;;;;;;13.88;12.30;;;4.90;99.90;;;;;;5040431;28;20045;-70
2022/05/02 02:59:09;;;;;;;18.58;12.05;;;4.90;99.90;;;;;;5056167;28;20133;-68
2022/05/02 03:01:35;;;;;;;14.82;12.20;;;4.90;99.90;;;;;;5057256;28;20124;-69
2022/05/02 03:06:01;;;;;;;13.70;12.10;;;4.90;99.90;;;;;;5057110;28;20469;-69
2022/05/02 03:06:46;;;;;;;13.68;12.10;;;4.90;99.90;;;;;;5056804;28;20064;-68
2022/05/02 03:09:12;;;;;;;14.95;11.43;;;4.90;99.90;;;;;;5057257;28;20040;-70
2022/05/02 03:11:38;;;;;;;14.57;11.77;;;4.90;99.90;;;;;;5056106;28;20118;-68
2022/05/02 03:14:04;;;;;;;16.40;12.40;;;4.80;99.90;;;;;;5056135;28;20041;-70
2022/05/02 03:16:30;;;;;;;18.30;13.93;;;4.80;99.90;;;;;;5057075;28;20107;-69
2022/05/02 03:18:55;;;;;;;13.82;12.38;;;4.80;99.90;;;;;;5057215;28;20044;-72
2022/05/02 03:21:21;;;;;;;16.92;13.20;;;4.70;99.90;;;;;;5056665;28;20063;-69
2022/05/02 03:23:46;;;;;;;14.20;11.52;;;4.70;99.90;;;;;;5056833;28;20142;-70
2022/05/02 03:26:12;;;;;;;15.70;12.73;;;4.70;99.90;;;;;;5056821;28;20175;-69
2022/05/02 03:28:37;;;;;;;16.25;12.73;;;4.70;99.90;;;;;;5055748;28;20457;-71
2022/05/02 03:31:03;;;;;;;16.80;12.48;;;4.60;99.90;;;;;;5056736;28;20470;-68
2022/05/02 03:33:30;;;;;;;14.15;11.93;;;4.60;99.90;;;;;;5056644;28;20076;-68
2022/05/02 03:35:55;;;;;;;15.15;12.50;;;4.60;99.90;;;;;;5055572;28;20482;-69
2022/05/02 03:38:21;;;;;;;14.77;12.38;;;4.60;99.90;;;;;;5056632;28;20067;-69
2022/05/02 03:40:46;;;;;;;16.00;13.40;;;4.50;99.90;;;;;;5056574;28;20131;-68
2022/05/02 03:43:12;;;;;;;16.08;13.32;;;4.50;99.90;;;;;;5055598;28;20077;-69
2022/05/02 03:45:37;;;;;;;15.10;12.38;;;4.50;99.90;;;;;;5056528;28;20126;-71
2022/05/02 03:48:04;;;;;;;14.98;13.40;;;4.50;99.90;;;;;;5056652;28;20370;-70
2022/05/02 03:50:30;;;;;;;16.27;12.07;;;4.50;99.90;;;;;;5056010;28;20127;-70
2022/05/02 03:52:55;;;;;;;15.45;11.82;;;4.40;99.90;;;;;;5056207;28;20136;-69
2022/05/02 03:55:21;;;;;;;15.15;12.27;;;4.50;99.90;;;;;;5038454;28;20052;-70
2022/05/02 03:57:47;;;;;;;14.00;11.50;;;4.50;99.90;;;;;;5055378;28;20033;-69
2022/05/02 04:00:13;;;;;;;17.45;12.65;;;4.40;99.90;;;;;;5056382;28;20045;-69
2022/05/02 04:02:39;;;;;;;15.63;11.38;;;4.40;99.90;;;;;;5056112;28;20084;-70
2022/05/02 04:05:05;;;;;;;11.85;10.52;;;4.40;99.90;;;;;;5055962;28;20081;-68
2022/05/02 04:07:31;;;;;;;13.02;10.13;;;4.30;99.90;;;;;;5055839;28;20124;-69
2022/05/02 04:09:56;;;;;;;12.15;10.13;;;4.30;99.90;;;;;;5048050;28;20111;-69
2022/05/02 04:12:22;;;;;;;12.70;10.88;;;4.30;99.90;;;;;;5036086;28;20081;-70
2022/05/02 04:14:47;;;;;;;13.75;11.20;;;4.50;99.90;;;;;;5036028;28;20041;-70
2022/05/02 04:17:13;;;;;;;12.30;10.95;;;4.30;99.90;;;;;;5036004;28;20565;-69
2022/05/02 04:19:38;;;;;;;11.38;10.13;;;4.30;99.90;;;;;;5035852;28;20045;-68
2022/05/02 04:22:04;;;;;;;13.57;10.73;;;4.30;99.90;;;;;;5024309;28;20041;-69
2022/05/02 04:24:30;;;;;;;13.50;10.25;;;4.30;99.90;;;;;;5055787;28;20141;-69
2022/05/02 04:26:57;;;;;;;12.45;9.85;;;4.30;99.90;;;;;;5055708;28;20366;-68
2022/05/02 04:29:24;;;;;;;12.75;9.88;;;4.30;99.90;;;;;;5055719;28;20421;-69
2022/05/02 04:31:49;;;;;;;13.55;9.93;;;4.30;99.90;;;;;;5055471;28;20175;-69
2022/05/02 04:34:15;;;;;;;11.32;9.55;;;4.30;99.90;;;;;;5055225;28;20064;-69
2022/05/02 04:36:40;;;;;;;10.85;9.48;;;4.30;99.90;;;;;;5054617;28;20044;-69
2022/05/02 04:39:06;;;;;;;12.30;9.70;;;4.40;99.90;;;;;;5055412;28;20449;-69
2022/05/02 04:41:32;;;;;;;11.13;9.68;;;4.40;99.90;;;;;;5055387;28;20045;-69
2022/05/02 04:43:57;;;;;;;10.65;9.45;;;4.40;99.90;;;;;;5055249;28;20062;-70
2022/05/02 04:46:23;;;;;;;10.88;9.63;;;4.40;99.90;;;;;;5055191;28;20111;-70
2022/05/02 04:48:49;;;;;;;11.35;8.63;;;4.40;99.90;;;;;;5054086;28;20099;-69
2022/05/02 04:51:15;;;;;;;10.82;8.60;;;4.50;99.90;;;;;;5054246;28;20041;-70
2022/05/02 04:53:41;;;;;;;10.50;9.05;;;4.50;99.90;;;;;;5038018;28;20052;-69
2022/05/02 04:56:06;;;;;;;9.63;8.52;;;4.50;99.90;;;;;;5055155;28;20076;-71
2022/05/02 04:58:32;;;;;;;9.13;7.68;;;4.50;99.90;;;;;;5055107;28;20174;-69
2022/05/02 05:00:57;;;;;;;10.02;8.75;;;4.60;99.90;;;;;;5035966;28;20049;-69
2022/05/02 05:03:23;;;;;;;9.60;8.50;;;4.60;99.90;;;;;;5053981;28;20044;-69
2022/05/02 05:05:49;;;;;;;10.55;8.75;;;4.70;99.90;;;;;;5054996;28;20128;-69
2022/05/02 05:08:15;;;;;;;9.13;7.57;;;4.70;99.90;;;;;;5055073;28;20052;-70
2022/05/02 05:10:57;;;;;;;9.73;7.93;;;4.80;99.90;;;;;;5054933;28;20064;-71
2022/05/02 05:13:26;;;;;;;10.85;8.75;;;4.80;99.90;;;;;;5054798;28;20049;-70
2022/05/02 05:16:36;;;;;;;9.63;7.43;;;4.90;99.90;;;;;;5054131;28;20064;-69
2022/05/02 05:19:26;;;;;;;10.13;8.05;;;4.90;99.90;;;;;;5016065;28;20060;-67
2022/05/02 05:22:16;;;;;;;9.88;8.57;;;5.10;99.90;;;;;;5055008;28;20466;-70
2022/05/02 05:24:53;;;;;;;12.23;8.63;;;5.10;99.90;;;;;;5054646;28;20049;-69
2022/05/02 05:27:27;;;;;;;11.93;9.70;;;5.10;99.90;;;;;;5054801;28;20095;-69
2022/05/02 05:30:01;;;;;;;13.10;10.95;;;5.20;99.90;;;;;;5054649;28;20095;-69
2022/05/02 05:32:51;;;;;;;15.70;11.77;;;5.30;99.90;;;;;;5053749;28;20053;-69
2022/05/02 05:35:44;;;;;;;13.73;11.15;;;5.40;99.90;;;;;;5036874;28;20458;-70
2022/05/02 05:38:17;;;;;;;14.43;12.02;;;5.50;99.90;;;;;;5044279;28;20052;-70
2022/05/02 05:40:48;;;;;;;16.20;12.60;;;5.50;99.90;;;;;;5054701;28;20052;-69
2022/05/02 05:43:20;;;;;;;16.38;12.98;;;5.60;99.90;;;;;;5053165;28;20041;-69
2022/05/02 05:46:04;;;;;;;16.80;12.88;;;5.70;99.90;;;;;;5039799;28;20421;-70
2022/05/02 05:49:00;;;;;;;16.50;14.05;;;5.80;99.90;;;;;;5054189;28;20045;-69
2022/05/02 05:51:53;;;;;;;17.80;13.88;;;5.90;99.90;;;;;;5036727;28;20451;-72
2022/05/02 05:54:55;;;;;;;20.55;14.68;;;6.00;99.90;;;;;;5054383;28;20386;-68
2022/05/02 05:58:02;;;;;;;21.17;16.10;;;6.10;99.90;;;;;;5054743;28;20063;-68
2022/05/02 06:00:31;;;;;;;17.50;14.50;;;6.20;99.90;;;;;;5057686;28;20057;-72
2022/05/02 06:03:19;;;;;;;18.35;15.48;;;6.30;99.90;;;;;;5058491;28;20334;-68
2022/05/02 06:05:46;;;;;;;19.80;16.52;;;6.40;99.90;;;;;;5058239;28;20120;-69
2022/05/02 06:08:22;;;;;;;20.70;16.15;;;6.50;99.90;;;;;;5040563;28;20470;-68
2022/05/02 06:10:50;;;;;;;19.95;16.08;;;6.60;99.90;;;;;;5058266;28;20077;-67
2022/05/02 06:13:18;;;;;;;27.35;17.17;;;6.70;99.90;;;;;;5058392;28;20056;-70
2022/05/02 06:18:36;;;;;;;17.83;14.45;;;6.90;99.90;;;;;;5057789;28;20081;-69
2022/05/02 06:21:05;;;;;;;17.10;15.18;;;7.00;99.90;;;;;;5057995;28;20051;-70
2022/05/02 06:23:44;;;;;;;18.00;15.35;;;7.20;99.90;;;;;;5057530;28;20040;-69
2022/05/02 06:26:11;;;;;;;19.20;15.35;;;7.30;99.90;;;;;;5058074;28;20178;-70
2022/05/02 06:28:45;;;;;;;18.17;14.50;;;7.40;99.90;;;;;;5057743;28;20072;-70
2022/05/02 06:31:40;;;;;;;19.27;15.10;;;7.60;99.90;;;;;;5055546;28;20092;-68
2022/05/02 06:34:08;;;;;;;18.48;15.40;;;7.70;99.90;;;;;;5031016;28;20462;-67
2022/05/02 06:36:48;;;;;;;17.00;14.50;;;7.80;99.90;;;;;;5039963;28;20065;-66
2022/05/02 06:39:34;;;;;;;21.35;14.15;;;8.00;99.90;;;;;;5045207;28;20055;-71
2022/05/02 06:42:20;;;;;;;17.80;13.98;;;8.10;99.90;;;;;;5048713;28;20167;-74
2022/05/02 06:44:48;;;;;;;16.75;14.43;;;8.20;99.90;;;;;;5062469;28;20029;-68
2022/05/02 06:47:26;;;;;;;22.52;13.93;;;8.40;99.90;;;;;;5062826;28;20110;-69
2022/05/02 06:49:56;;;;;;;18.35;14.23;;;8.50;99.90;;;;;;5045160;28;20087;-68
2022/05/02 06:52:27;;;;;;;16.52;13.85;;;8.70;99.90;;;;;;5063851;28;20079;-68
2022/05/02 06:55:02;;;;;;;15.75;13.23;;;8.70;99.90;;;;;;5057108;28;20040;-68
2022/05/02 06:57:58;;;;;;;14.95;12.88;;;8.80;99.90;;;;;;5062494;28;20044;-68
2022/05/02 07:00:23;;;;;;;17.95;13.25;;;9.00;99.90;;;;;;5062521;28;20245;-66
2022/05/02 07:03:23;;;;;;;16.85;13.15;;;9.00;99.90;;;;;;5063679;28;20120;-69
2022/05/02 07:06:15;;;;;;;16.52;13.32;;;9.20;99.90;;;;;;5061462;28;20204;-70
2022/05/02 07:08:55;;;;;;;14.65;12.27;;;9.30;99.90;;;;;;5049565;28;20382;-68
2022/05/02 07:11:27;;;;;;;15.02;12.27;;;9.50;99.90;;;;;;5063542;28;20051;-70
2022/05/02 07:14:06;;;;;;;14.98;11.38;;;9.60;99.90;;;;;;5047698;28;20367;-71
2022/05/02 07:16:37;;;;;;;14.60;11.32;;;9.80;99.90;;;;;;5053836;28;20053;-67
2022/05/02 07:19:12;;;;;;;13.20;10.38;;;9.90;99.90;;;;;;5056353;28;20613;-69
2022/05/02 07:21:42;;;;;;;;;;;10.00;99.90;;;;;;5039605;28;20084;-67
2022/05/02 07:24:42;;;;;;;12.95;9.55;;;10.00;99.90;;;;;;5056524;28;19931;-68
2022/05/02 07:27:16;;;;;;;9.95;8.85;;;10.20;99.90;;;;;;5056246;28;20131;-71
2022/05/02 07:29:44;;;;;;;14.90;9.27;;;10.20;99.90;;;;;;5055619;28;20036;-69
2022/05/02 07:32:11;;;;;;;11.40;8.85;;;10.30;99.90;;;;;;5056096;28;20554;-71
2022/05/02 07:34:40;;;;;;;13.75;9.23;;;10.40;99.90;;;;;;5056436;28;20366;-70
2022/05/02 07:37:07;;;;;;;9.65;7.88;;;10.50;99.90;;;;;;5056533;28;20045;-72
2022/05/02 07:39:39;;;;;;;9.10;7.80;;;10.60;99.90;;;;;;5056392;28;20049;-71
2022/05/02 07:42:05;;;;;;;8.75;7.38;;;10.60;99.90;;;;;;5038142;28;20064;-70
2022/05/02 07:44:34;;;;;;;9.13;7.38;;;10.70;99.90;;;;;;5056334;28;20120;-71
2022/05/02 07:47:04;;;;;;;8.68;7.60;;;10.90;99.90;;;;;;5044711;28;20088;-70
2022/05/02 07:49:32;;;;;;;10.95;7.97;;;10.90;99.90;;;;;;5056143;28;20045;-71
2022/05/02 07:52:01;;;;;;;10.82;8.40;;;10.90;99.90;;;;;;5057852;28;20041;-69
2022/05/02 07:54:29;;;;;;;11.02;7.53;;;11.10;99.90;;;;;;5044587;28;20100;-69
2022/05/02 07:57:00;;;;;;;10.02;6.82;;;11.20;99.90;;;;;;5062046;28;20044;-70
2022/05/02 07:59:36;;;;;;;8.70;6.07;;;11.30;99.90;;;;;;5061899;28;20099;-70
2022/05/02 08:02:03;;;;;;;9.73;7.13;;;11.40;99.90;;;;;;5060059;28;20548;-68
2022/05/02 08:04:30;;;;;;;9.60;7.80;;;11.50;99.90;;;;;;5062158;28;20037;-68
2022/05/02 08:07:00;;;;;;;11.82;8.73;;;11.50;99.90;;;;;;5062422;28;20070;-68
2022/05/02 08:09:48;;;;;;;11.50;7.93;;;11.60;99.90;;;;;;5061479;28;20903;-68
2022/05/02 08:12:40;;;;;;;10.48;8.30;;;11.70;99.90;;;;;;5061696;28;20402;-69
2022/05/02 08:15:31;;;;;;;10.93;8.63;;;11.70;99.90;;;;;;5061716;28;20129;-69
2022/05/02 08:18:38;;;;;;;13.68;9.55;;;11.70;99.90;;;;;;5061988;28;20055;-69
2022/05/02 08:21:16;;;;;;;11.18;8.68;;;11.70;99.90;;;;;;5061409;28;20134;-68
2022/05/02 08:29:44;;;;;;;13.43;8.00;;;11.90;99.90;;;;;;5055312;28;20040;-69
2022/05/02 08:32:13;;;;;;;8.95;7.88;;;11.80;99.90;;;;;;5054915;28;20493;-69
2022/05/02 08:34:39;;;;;;;8.00;6.70;;;11.90;99.90;;;;;;5054952;28;20443;-69
2022/05/02 08:37:10;;;;;;;10.65;7.95;;;12.10;99.90;;;;;;5055412;28;20041;-69
2022/05/02 08:39:53;;;;;;;9.07;7.85;;;12.20;99.90;;;;;;5033598;28;20045;-69
2022/05/02 08:43:11;;;;;;;10.60;7.30;;;12.30;99.90;;;;;;5035084;28;20072;-69
2022/05/02 08:46:17;;;;;;;8.52;7.20;;;12.30;99.90;;;;;;5012329;28;20053;-69
2022/05/02 08:52:12;;;;;;;11.40;7.90;;;12.40;99.90;;;;;;5035483;28;20049;-69
2022/05/02 08:55:20;;;;;;;8.88;7.90;;;12.40;99.90;;;;;;5035445;28;20137;-69
2022/05/02 08:58:15;;;;;;;13.90;8.25;;;12.40;99.90;;;;;;5035238;28;20447;-69
2022/05/02 09:01:18;;;;;;;10.98;7.32;;;12.50;99.90;;;;;;5054533;28;20055;-73
2022/05/02 09:04:34;;;;;;;10.18;8.82;;;12.60;99.90;;;;;;5054834;28;20045;-75
2022/05/02 09:07:19;;;;;;;10.35;7.97;;;12.60;99.90;;;;;;4994137;28;20095;-71
2022/05/02 09:10:06;;;;;;;11.43;8.13;;;12.60;99.90;;;;;;5055108;28;20084;-69
2022/05/02 09:12:40;;;;;;;10.20;8.27;;;12.70;99.90;;;;;;5032960;28;20076;-69
2022/05/02 09:15:32;;;;;;;11.15;8.45;;;12.70;99.90;;;;;;5034954;28;20073;-70
2022/05/02 09:18:29;;;;;;;10.73;8.23;;;12.70;99.90;;;;;;4997224;28;20517;-70
2022/05/02 09:21:06;;;;;;;10.52;7.70;;;12.70;99.90;;;;;;4994314;28;20049;-70
2022/05/02 09:23:35;;;;;;;10.38;8.18;;;12.70;99.90;;;;;;5034792;28;20088;-70
2022/05/02 09:26:26;;;;;;;8.80;7.57;;;12.60;99.90;;;;;;5034659;28;20054;-70
2022/05/02 09:29:04;;;;;;;9.25;6.90;;;12.70;99.90;;;;;;5018817;28;20049;-69
2022/05/02 09:31:58;;;;;;;9.52;8.50;;;12.60;99.90;;;;;;5054434;28;20041;-70
2022/05/02 09:34:38;;;;;;;11.90;8.40;;;12.60;99.90;;;;;;5036162;28;20128;-70
2022/05/02 09:37:20;;;;;;;10.95;7.45;;;12.60;99.90;;;;;;5054341;28;20091;-69
2022/05/02 09:40:04;;;;;;;16.90;8.25;;;12.60;99.90;;;;;;5054208;28;20486;-69
2022/05/02 09:43:05;;;;;;;10.02;7.88;;;12.60;99.90;;;;;;5054402;28;20060;-70
2022/05/02 09:52:04;;;;;;;8.30;6.88;;;12.70;99.90;;;;;;5034592;28;20046;-70
2022/05/02 09:57:59;;;;;;;8.38;6.47;;;12.80;99.90;;;;;;5034411;28;20049;-69
2022/05/02 10:03:34;;;;;;;6.47;5.78;;;12.90;99.90;;;;;;5053497;28;20045;-70
2022/05/02 10:06:04;;;;;;;8.35;6.35;;;13.00;99.90;;;;;;5037039;28;20124;-69
2022/05/02 10:08:51;;;;;;;7.28;5.63;;;13.10;99.90;;;;;;5054251;28;20056;-70
2022/05/02 10:11:57;;;;;;;7.50;5.80;;;13.10;99.90;;;;;;5054359;28;20087;-70
2022/05/02 10:14:47;;;;;;;8.93;6.47;;;13.20;99.90;;;;;;5053962;28;20374;-71
2022/05/02 10:17:16;;;;;;;10.18;5.13;;;13.20;99.90;;;;;;5054408;28;20049;-70
2022/05/02 10:20:00;;;;;;;6.72;5.45;;;13.30;99.90;;;;;;5053714;28;20052;-71
2022/05/02 10:22:52;;;;;;;8.87;5.70;;;13.40;99.90;;;;;;5054177;28;20041;-70
2022/05/02 10:25:35;;;;;;;7.60;4.97;;;13.30;99.90;;;;;;5053669;28;20733;-71
2022/05/02 10:28:21;;;;;;;6.93;5.78;;;13.50;99.90;;;;;;5054444;28;20037;-70
2022/05/02 10:30:56;;;;;;;8.15;5.35;;;13.50;99.90;;;;;;5053839;28;20045;-70
2022/05/02 10:33:42;;;;;;;6.32;4.93;;;13.50;99.90;;;;;;5053929;28;20060;-69
2022/05/02 10:36:10;;;;;;;10.43;6.63;;;13.50;99.90;;;;;;5054138;28;20149;-71
2022/05/02 10:38:52;;;;;;;6.85;5.43;;;13.60;99.90;;;;;;5035760;28;20044;-71
2022/05/02 10:41:46;;;;;;;6.82;4.93;;;13.60;99.90;;;;;;5053693;28;20120;-70
2022/05/02 10:44:15;;;;;;;6.77;4.90;;;13.50;99.90;;;;;;5036791;28;20059;-69
2022/05/02 10:46:43;;;;;;;6.93;5.60;;;13.50;99.90;;;;;;5032533;28;20064;-70
2022/05/02 10:49:14;;;;;;;7.22;5.03;;;13.50;99.90;;;;;;5037510;28;20466;-71
2022/05/02 10:52:07;;;;;;;6.85;4.93;;;13.50;99.90;;;;;;5037532;28;20132;-71
2022/05/02 10:54:48;;;;;;;6.28;4.75;;;13.60;99.90;;;;;;5036697;28;20413;-71
2022/05/02 10:57:39;;;;;;;9.05;5.75;;;13.70;99.90;;;;;;5037668;28;20085;-71
2022/05/02 11:00:09;;;;;;;6.47;4.85;;;13.70;99.90;;;;;;5037193;28;20050;-70
2022/05/02 11:02:34;;;;;;;7.53;4.72;;;13.80;99.90;;;;;;5037082;28;20045;-70
2022/05/02 11:05:17;;;;;;;5.82;4.63;;;13.80;99.90;;;;;;5036965;28;20375;-70
2022/05/02 11:07:57;;;;;;;7.15;4.00;;;13.80;99.90;;;;;;5036832;28;20037;-71
2022/05/02 11:10:28;;;;;;;5.68;4.60;;;14.00;99.90;;;;;;5037342;28;20171;-72
2022/05/02 11:13:20;;;;;;;7.35;4.80;;;14.00;99.90;;;;;;5036533;28;20049;-70
2022/05/02 11:16:03;;;;;;;9.00;5.63;;;14.10;99.90;;;;;;5036764;28;20473;-70
2022/05/02 11:21:59;;;;;;;7.57;5.88;;;14.40;99.90;;;;;;5036965;28;20049;-71
2022/05/02 11:24:58;;;;;;;10.55;6.80;;;14.50;99.90;;;;;;5036155;28;20057;-72
2022/05/02 11:27:34;;;;;;;7.13;6.43;;;14.60;99.90;;;;;;5036760;28;20105;-70
2022/05/02 11:30:06;;;;;;;14.55;8.02;;;14.70;99.90;;;;;;5016891;28;20053;-71
2022/05/02 11:32:56;;;;;;;8.93;7.78;;;14.70;99.90;;;;;;5016962;28;20057;-71
2022/05/02 11:35:47;;;;;;;10.32;8.10;;;14.70;99.90;;;;;;5016756;28;20054;-71
2022/05/02 11:38:28;;;;;;;14.80;7.60;;;14.70;99.90;;;;;;5016163;28;20369;-70
2022/05/02 11:41:14;;;;;;;9.75;7.03;;;14.80;99.90;;;;;;5016917;28;20038;-71
2022/05/02 11:43:40;;;;;;;15.20;7.30;;;14.70;99.90;;;;;;5016771;28;20037;-71
2022/05/02 11:46:24;;;;;;;10.52;6.50;;;14.80;99.90;;;;;;5037318;28;20084;-71
2022/05/02 11:49:17;;;;;;;11.40;7.40;;;15.00;99.90;;;;;;5040069;28;20057;-71
2022/05/02 11:51:51;;;;;;;10.95;6.85;;;15.00;99.90;;;;;;5038813;28;20053;-71
2022/05/02 11:54:29;;;;;;;8.27;6.60;;;14.90;99.90;;;;;;5056337;28;20128;-71
2022/05/02 11:57:00;;;;;;;9.82;6.55;;;15.00;99.90;;;;;;5056088;28;20179;-70
2022/05/02 11:59:41;;;;;;;8.20;6.00;;;15.00;99.90;;;;;;5056312;28;20051;-72
2022/05/02 12:02:27;;;;;;;7.43;6.35;;;15.20;99.90;;;;;;5037893;28;20041;-71
2022/05/02 12:04:57;;;;;;;8.73;7.32;;;15.20;99.90;;;;;;5036216;28;20551;-70
2022/05/02 12:07:30;;;;;;;10.82;7.20;;;15.30;99.90;;;;;;5035831;28;20507;-70
2022/05/02 12:10:07;;;;;;;9.68;7.20;;;15.30;99.90;;;;;;5036043;28;20045;-70
2022/05/02 12:12:33;;;;;;;8.65;6.63;;;15.30;99.90;;;;;;5036131;28;20460;-71
2022/05/02 12:15:04;;;;;;;11.40;7.10;;;15.40;99.90;;;;;;5036210;28;20055;-71
2022/05/02 12:17:30;;;;;;;10.50;7.43;;;15.60;99.90;;;;;;5035750;28;20064;-69
2022/05/02 12:19:56;;;;;;;7.35;6.60;;;15.70;99.90;;;;;;5046696;28;20429;-72
2022/05/02 12:22:26;;;;;;;9.27;6.95;;;15.90;99.90;;;;;;5055897;28;20370;-71
2022/05/02 12:24:54;;;;;;;11.40;6.85;;;16.10;99.90;;;;;;5055713;28;20055;-72
2022/05/02 12:27:22;;;;;;;8.90;6.30;;;16.20;99.90;;;;;;5055298;28;20443;-71
2022/05/02 12:29:57;;;;;;;7.00;6.22;;;16.60;99.90;;;;;;5055002;28;20045;-69
2022/05/02 12:32:30;;;;;;;8.05;6.63;;;16.90;99.90;;;;;;5055619;28;20114;-72
2022/05/02 12:34:57;;;;;;;8.35;5.88;;;17.10;99.90;;;;;;5055775;28;20064;-70
2022/05/02 12:37:36;;;;;;;6.72;6.03;;;17.60;99.90;;;;;;5054494;28;20470;-73
2022/05/02 12:40:04;;;;;;;6.68;5.47;;;18.00;99.90;;;;;;5055494;28;20179;-71
2022/05/02 12:42:47;;;;;;;6.60;5.57;;;18.30;99.90;;;;;;5055306;28;20040;-73
2022/05/02 12:45:15;;;;;;;6.90;5.93;;;18.80;99.90;;;;;;5055323;28;20051;-71
2022/05/02 12:48:15;;;;;;;7.25;5.70;;;18.70;99.90;;;;;;5055188;28;20114;-73
2022/05/02 12:50:45;;;;;;;5.85;5.20;;;19.10;99.90;;;;;;5055036;28;20123;-73
2022/05/02 12:54:09;;;;;;;6.40;5.32;;;19.80;99.90;;;;;;5054638;28;20063;-73
2022/05/02 12:56:06;;;;;;;8.90;5.45;;;20.10;99.90;;;;;;5055116;28;20049;-73
2022/05/02 13:01:21;;;;;;;5.75;4.70;;;20.40;99.70;;;;;;5054998;28;20045;-73
2022/05/02 13:03:57;;;;;;;7.90;5.57;;;21.10;99.40;;;;;;5047451;28;20037;-73
2022/05/02 13:06:23;;;;;;;7.22;5.03;;;21.70;97.20;;;;;;5034994;28;20055;-72
2022/05/02 13:08:50;;;;;;;8.98;5.35;;;21.40;92.10;;;;;;5034371;28;20045;-73
2022/05/02 13:11:21;;;;;;;6.45;4.22;;;21.00;93.90;;;;;;5048425;28;20450;-73
2022/05/02 13:13:52;;;;;;;6.07;3.90;;;21.70;94.50;;;;;;5054855;28;20106;-72
2022/05/02 13:16:30;;;;;;;4.82;4.07;;;22.30;92.40;;;;;;5054772;28;20045;-74
2022/05/02 13:19:00;;;;;;;5.35;4.60;;;22.80;90.10;;;;;;5054644;28;20040;-73
2022/05/02 13:21:26;;;;;;;6.05;4.05;;;23.20;91.70;;;;;;5053957;28;20068;-76
2022/05/02 13:24:02;;;;;;;5.70;4.05;;;23.70;90.20;;;;;;5054565;28;20414;-75
2022/05/02 13:26:36;;;;;;;4.82;3.95;;;22.80;75.70;;;;;;5054727;28;20129;-75
2022/05/02 13:29:35;;;;;;;8.48;4.07;;;22.80;81.50;;;;;;5054120;28;20060;-75
2022/05/02 13:32:10;;;;;;;7.15;4.15;;;23.70;80.30;;;;;;5054786;28;20053;-73
2022/05/02 13:34:40;;;;;;;9.38;4.15;;;23.60;79.10;;;;;;5036943;28;20056;-73
2022/05/02 13:37:14;;;;;;;5.38;3.60;;;24.00;79.40;;;;;;5037505;28;20080;-71
2022/05/02 13:39:51;;;;;;;4.70;3.53;;;24.60;73.90;;;;;;5054340;28;20049;-72
2022/05/02 13:42:36;;;;;;;4.53;4.13;;;24.00;71.10;;;;;;5054357;28;20045;-72
2022/05/02 13:45:41;;;;;;;4.78;4.28;;;23.80;70.90;;;;;;5015261;28;20057;-72
2022/05/02 13:48:26;;;;;;;4.05;3.53;;;23.30;74.80;;;;;;5034217;28;20443;-73
2022/05/02 13:50:57;;;;;;;6.47;3.70;;;24.30;69.30;;;;;;5034544;28;20045;-72